createdAt,value
2019-05-15T00:00:48.146Z,8.27
2019-05-15T00:03:19.562Z,8.07
2019-05-15T00:05:45.914Z,8.90
2019-05-15T00:08:13.325Z,6.20
2019-05-15T00:10:40.747Z,8.97
2019-05-15T00:13:09.182Z,7.50
2019-05-15T00:15:39.792Z,9.00
2019-05-15T00:18:08.711Z,8.07
2019-05-15T00:20:35.807Z,6.93
2019-05-15T00:23:03.195Z,7.40
2019-05-15T00:25:30.680Z,7.50
2019-05-15T00:27:58.300Z,7.53
2019-05-15T00:30:25.727Z,7.33
2019-05-15T00:32:53.133Z,9.07
2019-05-15T00:35:20.609Z,9.23
2019-05-15T00:37:49.215Z,9.03
2019-05-15T00:40:18.357Z,8.23
2019-05-15T00:42:48.615Z,7.97
2019-05-15T00:45:18.501Z,9.43
2019-05-15T00:47:48.489Z,8.80
2019-05-15T00:50:15.471Z,9.10
2019-05-15T00:52:43.015Z,7.00
2019-05-15T00:55:10.858Z,7.90
2019-05-15T00:57:39.273Z,7.40
2019-05-15T01:00:08.176Z,7.83
2019-05-15T01:02:35.839Z,7.73
2019-05-15T01:05:04.123Z,8.00
2019-05-15T01:07:31.527Z,6.67
2019-05-15T01:09:58.928Z,8.77
2019-05-15T01:12:26.355Z,7.70
2019-05-15T01:14:53.755Z,8.13
2019-05-15T01:17:21.151Z,7.37
2019-05-15T01:19:48.592Z,7.67
2019-05-15T01:22:15.984Z,7.37
2019-05-15T01:24:43.374Z,7.20
2019-05-15T01:27:10.889Z,7.30
2019-05-15T01:29:44.014Z,6.43
2019-05-15T01:32:08.427Z,6.40
2019-05-15T01:34:38.270Z,7.40
2019-05-15T01:37:05.151Z,9.00
2019-05-15T01:39:32.527Z,8.40
2019-05-15T01:42:00.383Z,8.93
2019-05-15T01:44:28.738Z,8.00
2019-05-15T01:46:58.877Z,8.00
2019-05-15T01:49:27.642Z,9.00
2019-05-15T01:51:54.844Z,9.07
2019-05-15T01:54:22.547Z,7.97
2019-05-15T01:56:50.168Z,8.03
2019-05-15T01:59:18.929Z,6.93
2019-05-15T02:01:48.528Z,7.73
2019-05-15T02:04:15.771Z,12.00
2019-05-15T02:06:43.152Z,11.10
2019-05-15T02:09:10.539Z,10.17
2019-05-15T02:11:38.330Z,13.13
2019-05-15T02:14:08.097Z,10.60
2019-05-15T02:16:35.091Z,10.30
2019-05-15T02:19:02.634Z,14.40
2019-05-15T02:21:30.016Z,12.10
2019-05-15T02:23:58.795Z,11.60
2019-05-15T02:26:28.150Z,12.17
2019-05-15T02:28:55.735Z,13.07
2019-05-15T02:31:23.128Z,11.10
2019-05-15T02:33:50.896Z,11.87
2019-05-15T02:36:20.610Z,10.17
2019-05-15T02:38:48.711Z,11.57
2019-05-15T02:41:19.294Z,13.90
2019-05-15T02:43:45.568Z,12.73
2019-05-15T02:46:12.856Z,13.83
2019-05-15T02:48:41.138Z,12.77
2019-05-15T02:51:09.752Z,10.53
2019-05-15T02:53:39.600Z,11.30
2019-05-15T02:56:09.360Z,13.53
2019-05-15T02:58:39.513Z,16.40
2019-05-15T03:01:05.715Z,15.53
2019-05-15T03:03:33.129Z,15.47
2019-05-15T03:06:00.551Z,14.60
2019-05-15T03:08:29.751Z,16.23
2019-05-15T03:10:59.214Z,12.40
2019-05-15T03:13:29.554Z,12.10
2019-05-15T03:15:55.549Z,8.00
2019-05-15T03:18:23.329Z,8.30
2019-05-15T03:20:50.724Z,7.60
2019-05-15T03:23:19.816Z,6.80
2019-05-15T03:25:49.040Z,6.73
2019-05-15T03:28:19.067Z,6.07
2019-05-15T03:33:25.014Z,5.27
2019-05-15T03:35:45.013Z,6.07
2019-05-15T03:38:12.656Z,5.70
2019-05-15T03:40:40.263Z,6.33
2019-05-15T03:43:09.125Z,6.27
2019-05-15T03:45:40.004Z,6.23
2019-05-15T03:48:08.973Z,7.40
2019-05-15T03:50:35.268Z,6.33
2019-05-15T03:53:02.872Z,6.07
2019-05-15T03:55:30.924Z,7.10
2019-05-15T03:57:59.133Z,7.13
2019-05-15T04:00:29.890Z,6.63
2019-05-15T04:02:58.800Z,6.60
2019-05-15T04:05:25.265Z,6.07
2019-05-15T04:07:52.672Z,7.60
2019-05-15T04:10:20.286Z,6.13
2019-05-15T04:12:49.295Z,6.07
2019-05-15T04:15:18.716Z,6.77
2019-05-15T04:17:49.043Z,7.20
2019-05-15T04:20:15.441Z,6.30
2019-05-15T04:22:42.840Z,5.70
2019-05-15T04:25:11.087Z,6.30
2019-05-15T04:27:41.487Z,6.10
2019-05-15T04:30:10.642Z,7.40
2019-05-15T04:32:39.953Z,6.83
2019-05-15T04:35:09.203Z,6.40
2019-05-15T04:37:40.180Z,7.03
2019-05-15T04:40:09.217Z,6.53
2019-05-15T04:42:39.396Z,7.47
2019-05-15T04:45:05.385Z,8.83
2019-05-15T04:47:33.116Z,8.30
2019-05-15T04:50:00.518Z,7.33
2019-05-15T04:52:30.420Z,7.70
2019-05-15T04:54:59.849Z,6.90
2019-05-15T04:57:32.934Z,7.60
2019-05-15T04:59:58.686Z,6.57
2019-05-15T05:02:31.083Z,6.70
2019-05-15T05:04:58.578Z,6.10
2019-05-15T05:07:25.763Z,7.10
2019-05-15T05:09:53.155Z,7.30
2019-05-15T05:12:20.477Z,6.13
2019-05-15T05:14:48.374Z,6.37
2019-05-15T05:17:16.048Z,5.87
2019-05-15T05:19:43.464Z,6.93
2019-05-15T05:22:10.751Z,5.20
2019-05-15T05:24:38.610Z,6.93
2019-05-15T05:27:05.959Z,6.00
2019-05-15T05:29:33.446Z,5.97
2019-05-15T05:32:01.283Z,5.60
2019-05-15T05:34:28.690Z,5.53
2019-05-15T05:36:58.732Z,5.70
2019-05-15T05:39:25.483Z,5.30
2019-05-15T05:41:52.871Z,6.30
2019-05-15T05:44:20.263Z,5.10
2019-05-15T05:46:48.802Z,5.93
2019-05-15T05:49:18.395Z,7.07
2019-05-15T05:51:47.948Z,6.27
2019-05-15T05:54:17.978Z,5.60
2019-05-15T05:56:44.979Z,5.97
2019-05-15T05:59:12.407Z,6.43
2019-05-15T06:01:44.007Z,6.70
2019-05-15T06:04:09.075Z,5.63
2019-05-15T06:06:38.395Z,6.10
2019-05-15T06:09:06.060Z,6.10
2019-05-15T06:11:33.447Z,5.27
2019-05-15T06:14:00.867Z,4.47
2019-05-15T06:16:28.507Z,5.50
2019-05-15T06:18:58.467Z,5.57
2019-05-15T06:21:25.088Z,4.90
2019-05-15T06:23:55.332Z,5.30
2019-05-15T06:26:21.827Z,5.30
2019-05-15T06:28:49.291Z,4.97
2019-05-15T06:31:18.821Z,5.10
2019-05-15T06:33:46.015Z,4.90
2019-05-15T06:36:13.431Z,5.00
2019-05-15T06:38:40.951Z,5.63
2019-05-15T06:41:08.852Z,5.90
2019-05-15T06:43:38.658Z,5.90
2019-05-15T06:46:05.603Z,6.50
2019-05-15T06:48:32.998Z,7.73
2019-05-15T06:51:00.407Z,5.97
2019-05-15T06:53:29.005Z,5.90
2019-05-15T06:55:58.447Z,7.00
2019-05-15T06:58:26.099Z,7.30
2019-05-15T07:00:53.650Z,8.10
2019-05-15T07:03:25.709Z,7.40
2019-05-15T07:05:51.035Z,7.60
2019-05-15T07:08:18.885Z,7.87
2019-05-15T07:10:48.380Z,7.63
2019-05-15T07:13:15.480Z,6.93
2019-05-15T07:15:44.251Z,7.20
2019-05-15T07:18:11.657Z,7.20
2019-05-15T07:20:39.270Z,8.50
2019-05-15T07:23:08.827Z,7.30
2019-05-15T07:25:38.772Z,7.80
2019-05-15T07:28:05.202Z,9.07
2019-05-15T07:30:32.734Z,8.60
2019-05-15T07:33:00.147Z,7.73
2019-05-15T07:35:28.758Z,7.20
2019-05-15T07:37:58.595Z,7.90
2019-05-15T07:40:28.801Z,9.20
2019-05-15T07:42:55.216Z,8.50
2019-05-15T07:45:23.809Z,7.20
2019-05-15T07:47:51.136Z,7.83
2019-05-15T07:50:19.681Z,7.60
2019-05-15T07:52:48.556Z,7.70
2019-05-15T07:55:18.527Z,6.80
2019-05-15T07:57:45.755Z,7.23
2019-05-15T08:00:13.935Z,7.50
2019-05-15T08:02:41.326Z,7.93
2019-05-15T08:05:09.545Z,7.80
2019-05-15T08:07:38.837Z,7.27
2019-05-15T08:10:08.730Z,7.60
2019-05-15T08:12:38.889Z,7.90
2019-05-15T08:15:08.888Z,8.30
2019-05-15T08:17:56.060Z,7.90
2019-05-15T08:20:09.087Z,8.17
2019-05-15T08:22:38.247Z,8.53
2019-05-15T08:25:11.265Z,7.80
2019-05-15T08:27:38.280Z,8.53
2019-05-15T08:30:08.771Z,9.10
2019-05-15T08:32:35.912Z,8.90
2019-05-15T08:35:03.799Z,8.70
2019-05-15T08:37:31.292Z,8.53
2019-05-15T08:39:59.851Z,9.03
2019-05-15T08:42:28.115Z,9.27
2019-05-15T08:44:57.826Z,8.90
2019-05-15T08:47:24.896Z,9.40
2019-05-15T08:49:52.291Z,10.70
2019-05-15T08:52:19.736Z,10.30
2019-05-15T08:54:48.651Z,10.10
2019-05-15T08:57:20.080Z,10.10
2019-05-15T08:59:45.835Z,9.37
2019-05-15T09:02:13.223Z,9.63
2019-05-15T09:04:40.619Z,9.93
2019-05-15T09:07:09.155Z,9.63
2019-05-15T09:09:38.370Z,9.80
2019-05-15T09:12:08.218Z,9.63
2019-05-15T09:14:35.355Z,9.37
2019-05-15T09:17:02.744Z,8.93
2019-05-15T09:19:30.157Z,8.37
2019-05-15T09:21:58.831Z,8.63
2019-05-15T09:24:28.406Z,9.83
2019-05-15T09:26:55.343Z,9.77
2019-05-15T09:29:22.784Z,7.80
2019-05-15T09:31:50.184Z,8.73
2019-05-15T09:34:18.557Z,8.97
2019-05-15T09:36:48.432Z,8.47
2019-05-15T09:39:15.448Z,8.60
2019-05-15T09:41:43.441Z,9.10
2019-05-15T09:44:10.856Z,8.47
2019-05-15T09:46:38.424Z,7.80
2019-05-15T09:49:08.606Z,8.77
2019-05-15T09:51:35.096Z,8.53
2019-05-15T09:54:02.842Z,8.70
2019-05-15T09:56:30.484Z,8.33
2019-05-15T09:58:58.272Z,9.37
2019-05-15T10:01:28.342Z,8.07
2019-05-15T10:03:54.971Z,8.10
2019-05-15T10:06:22.391Z,8.90
2019-05-15T10:08:49.784Z,8.37
2019-05-15T10:11:19.581Z,9.23
2019-05-15T10:13:47.033Z,9.77
2019-05-15T10:16:14.448Z,8.60
2019-05-15T10:18:41.835Z,8.73
2019-05-15T10:21:09.382Z,9.10
2019-05-15T10:23:40.390Z,8.37
2019-05-15T10:26:13.782Z,8.50
2019-05-15T10:28:39.115Z,8.17
2019-05-15T10:31:05.920Z,9.07
2019-05-15T10:33:33.315Z,8.60
2019-05-15T10:36:00.944Z,10.20
2019-05-15T10:38:28.623Z,8.80
2019-05-15T10:41:08.098Z,9.30
2019-05-15T10:43:25.387Z,8.10
2019-05-15T10:45:54.823Z,8.40
2019-05-15T10:48:21.988Z,8.93
2019-05-15T10:50:49.822Z,8.30
2019-05-15T10:53:19.755Z,6.70
2019-05-15T10:55:49.497Z,7.83
2019-05-15T10:58:20.928Z,8.50
2019-05-15T11:00:49.010Z,6.90
2019-05-15T11:03:15.142Z,8.37
2019-05-15T11:05:45.750Z,7.63
2019-05-15T11:08:11.807Z,8.20
2019-05-15T11:10:41.891Z,8.00
2019-05-15T11:13:08.991Z,7.00
2019-05-15T11:15:40.539Z,8.07
2019-05-15T11:18:05.791Z,8.47
2019-05-15T11:20:33.379Z,8.13
2019-05-15T11:23:00.764Z,7.80
2019-05-15T11:25:30.107Z,7.60
2019-05-15T11:27:59.019Z,7.33
2019-05-15T11:30:26.472Z,7.30
2019-05-15T11:32:53.772Z,7.50
2019-05-15T11:35:21.240Z,6.87
2019-05-15T11:37:56.103Z,7.37
2019-05-15T11:40:18.872Z,7.33
2019-05-15T11:42:48.567Z,7.47
2019-05-15T11:45:18.473Z,7.53
2019-05-15T11:47:45.135Z,7.63
2019-05-15T11:50:13.266Z,6.80
2019-05-15T11:52:40.755Z,7.90
2019-05-15T11:55:09.024Z,7.67
2019-05-15T11:57:43.584Z,7.43
2019-05-15T12:00:15.095Z,6.83
2019-05-15T12:02:38.175Z,8.03
2019-05-15T12:05:05.839Z,7.70
2019-05-15T12:07:33.288Z,8.00
2019-05-15T12:10:00.687Z,8.53
2019-05-15T12:12:31.775Z,9.60
2019-05-15T12:14:57.541Z,8.40
2019-05-15T12:17:24.943Z,7.30
2019-05-15T12:20:01.300Z,8.80
2019-05-15T12:22:21.744Z,7.50
2019-05-15T12:24:50.106Z,8.57
2019-05-15T12:27:18.524Z,8.13
2019-05-15T12:29:48.976Z,8.90
2019-05-15T12:32:28.458Z,8.90
2019-05-15T12:34:44.520Z,9.50
2019-05-15T12:37:11.913Z,9.63
2019-05-15T12:39:41.290Z,9.67
2019-05-15T13:02:04.503Z,11.00
2019-05-15T13:04:32.138Z,11.80
2019-05-15T13:07:12.347Z,11.47
2019-05-15T13:09:28.744Z,12.43
2019-05-15T13:11:56.220Z,9.70
2019-05-15T13:14:23.607Z,10.77
2019-05-15T13:16:51.013Z,12.00
2019-05-15T13:19:18.947Z,10.60
2019-05-15T13:21:50.938Z,9.53
2019-05-15T13:24:15.678Z,9.90
2019-05-15T13:26:43.249Z,11.50
2019-05-15T13:29:10.640Z,11.70
2019-05-15T13:31:38.383Z,9.00
2019-05-15T13:34:07.973Z,8.93
2019-05-15T13:36:35.121Z,9.60
2019-05-15T13:39:04.343Z,9.33
2019-05-15T13:41:31.808Z,10.10
2019-05-15T13:43:59.207Z,9.57
2019-05-15T13:46:28.802Z,9.27
2019-05-15T13:48:55.975Z,8.73
2019-05-15T13:51:23.377Z,8.80
2019-05-15T13:53:53.534Z,8.43
2019-05-15T13:56:19.995Z,9.00
2019-05-15T13:58:48.264Z,10.30
2019-05-15T14:01:15.691Z,7.80
2019-05-15T14:03:43.128Z,9.53
2019-05-15T14:06:10.519Z,8.53
2019-05-15T14:08:38.336Z,9.23
2019-05-15T14:11:05.976Z,10.07
2019-05-15T14:13:33.363Z,8.30
2019-05-15T14:16:00.755Z,9.33
2019-05-15T14:18:28.640Z,8.47
2019-05-15T14:20:58.212Z,9.53
2019-05-15T14:23:25.419Z,8.50
2019-05-15T14:25:52.835Z,8.20
2019-05-15T14:28:20.231Z,8.43
2019-05-15T14:30:47.626Z,9.00
2019-05-15T14:33:15.064Z,8.70
2019-05-15T14:35:42.673Z,8.00
2019-05-15T14:38:10.572Z,9.30
2019-05-15T14:40:38.199Z,8.00
2019-05-15T14:43:08.551Z,8.27
2019-05-15T14:45:34.987Z,7.67
2019-05-15T14:48:02.854Z,8.70
2019-05-15T14:50:30.243Z,9.80
2019-05-15T14:52:58.542Z,8.53
2019-05-15T14:55:32.305Z,8.70
2019-05-15T14:57:58.670Z,7.60
2019-05-15T15:00:28.775Z,7.60
2019-05-15T15:02:54.906Z,7.00
2019-05-15T15:05:23.260Z,7.90
2019-05-15T15:07:50.707Z,6.63
2019-05-15T15:10:20.145Z,6.93
2019-05-15T15:12:49.917Z,6.87
2019-05-15T15:15:18.072Z,6.07
2019-05-15T15:17:45.648Z,9.57
2019-05-15T15:20:15.080Z,9.10
2019-05-15T15:22:42.682Z,7.83
2019-05-15T15:25:10.443Z,9.50
2019-05-15T15:27:38.642Z,9.63
2019-05-15T15:30:09.189Z,7.70
2019-05-15T15:32:37.749Z,9.20
2019-05-15T15:35:08.498Z,9.03
2019-05-15T15:37:37.997Z,9.23
2019-05-15T15:40:05.583Z,8.10
2019-05-15T15:42:32.981Z,7.20
2019-05-15T15:45:00.384Z,8.07
2019-05-15T15:47:28.277Z,7.97
2019-05-15T15:49:55.871Z,8.10
2019-05-15T15:52:23.871Z,7.77
2019-05-15T15:54:51.656Z,7.47
2019-05-15T15:57:19.353Z,8.40
2019-05-15T15:59:49.173Z,8.13
2019-05-15T16:02:18.568Z,8.03
2019-05-15T16:04:45.496Z,8.63
2019-05-15T16:07:13.202Z,9.20
2019-05-15T16:09:40.839Z,10.07
2019-05-15T16:12:09.700Z,9.40
2019-05-15T16:14:38.118Z,7.70
2019-05-15T16:17:05.713Z,9.33
2019-05-15T16:19:33.115Z,8.40
2019-05-15T16:22:00.512Z,9.90
2019-05-15T16:24:29.295Z,9.77
2019-05-15T16:26:58.003Z,9.00
2019-05-15T16:29:28.112Z,9.60
2019-05-15T16:31:55.464Z,10.03
2019-05-15T16:34:22.867Z,10.60
2019-05-15T16:36:50.272Z,10.97
2019-05-15T16:39:18.268Z,10.47
2019-05-15T16:41:45.827Z,9.33
2019-05-15T16:44:13.240Z,11.07
2019-05-15T16:46:41.054Z,9.83
2019-05-15T16:49:08.457Z,8.60
2019-05-15T16:51:38.085Z,11.70
2019-05-15T16:54:05.120Z,9.83
2019-05-15T16:56:36.239Z,11.03
2019-05-15T16:59:02.080Z,10.30
2019-05-15T17:01:29.711Z,10.83
2019-05-15T17:03:57.424Z,9.93
2019-05-15T17:06:24.807Z,9.50
2019-05-15T17:08:52.407Z,8.70
2019-05-15T17:11:20.065Z,10.07
2019-05-15T17:13:48.292Z,9.93
2019-05-15T17:16:15.867Z,10.00
2019-05-15T17:18:43.253Z,10.03
2019-05-15T17:21:10.671Z,10.43
2019-05-15T17:23:38.279Z,9.00
2019-05-15T17:26:05.711Z,9.47
2019-05-15T17:28:33.115Z,10.10
2019-05-15T17:31:00.551Z,8.77
2019-05-15T17:33:28.857Z,9.60
2019-05-15T17:35:58.003Z,8.80
2019-05-15T17:38:25.721Z,8.73
2019-05-15T17:40:53.439Z,8.80
2019-05-15T17:43:20.831Z,8.47
2019-05-15T17:45:48.544Z,8.30
2019-05-15T17:48:19.386Z,9.03
2019-05-15T17:50:49.726Z,8.67
2019-05-15T17:53:14.618Z,10.33
2019-05-15T17:55:42.191Z,8.70
2019-05-15T17:58:09.795Z,8.33
2019-05-15T18:00:39.395Z,7.77
2019-05-15T18:03:08.586Z,7.67
2019-05-15T18:05:35.647Z,9.77
2019-05-15T18:08:03.279Z,9.40
2019-05-15T18:10:30.672Z,9.77
2019-05-15T18:12:58.508Z,9.20
2019-05-15T18:15:26.048Z,7.77
2019-05-15T18:17:53.627Z,7.60
2019-05-15T18:20:25.018Z,6.50
2019-05-15T18:22:52.665Z,6.47
2019-05-15T18:25:20.127Z,7.00
2019-05-15T18:27:48.085Z,7.80
2019-05-15T18:30:18.130Z,6.70
2019-05-15T18:32:45.441Z,7.77
2019-05-15T18:35:15.765Z,7.80
2019-05-15T18:37:43.360Z,7.50
2019-05-15T18:40:12.288Z,8.20
2019-05-15T18:42:39.746Z,9.80
2019-05-15T18:45:07.963Z,8.60
2019-05-15T18:47:35.344Z,9.40
2019-05-15T18:50:05.391Z,11.20
2019-05-15T18:52:32.025Z,10.60
2019-05-15T18:54:59.584Z,9.80
2019-05-15T18:57:27.271Z,10.70
2019-05-15T18:59:55.361Z,8.73
2019-05-15T19:02:22.800Z,6.73
2019-05-15T19:04:50.337Z,8.07
2019-05-15T19:07:18.268Z,7.90
2019-05-15T19:09:47.891Z,7.30
2019-05-15T19:12:15.023Z,7.93
2019-05-15T19:14:42.675Z,6.77
2019-05-15T19:17:10.152Z,7.70
2019-05-15T19:19:38.849Z,9.70
2019-05-15T19:22:07.889Z,7.83
2019-05-15T19:24:35.387Z,9.10
2019-05-15T19:27:02.932Z,7.17
2019-05-15T19:29:30.696Z,6.90
2019-05-15T19:31:58.152Z,6.00
2019-05-15T19:34:25.568Z,5.80
2019-05-15T19:36:53.107Z,5.93
2019-05-15T19:39:20.614Z,6.10
2019-05-15T19:41:47.999Z,5.70
2019-05-15T19:44:17.992Z,5.40
2019-05-15T19:46:47.882Z,5.80
2019-05-15T19:49:14.759Z,5.53
2019-05-15T19:51:42.376Z,6.20
2019-05-15T19:54:09.832Z,6.53
2019-05-15T19:56:38.031Z,6.90
2019-05-15T19:59:05.905Z,6.63
2019-05-15T20:01:33.307Z,6.83
2019-05-15T20:04:00.698Z,6.40
2019-05-15T20:06:28.244Z,6.80
2019-05-15T20:08:55.847Z,7.80
2019-05-15T20:11:23.245Z,6.83
2019-05-15T20:13:50.703Z,7.07
2019-05-15T20:16:21.192Z,6.43
2019-05-15T20:18:47.918Z,8.80
2019-05-15T20:21:15.544Z,8.80
2019-05-15T20:23:44.134Z,11.43
2019-05-15T20:26:11.508Z,11.40
2019-05-15T20:28:39.373Z,11.70
2019-05-15T20:31:07.915Z,13.90
2019-05-15T20:33:37.751Z,10.80
2019-05-15T20:36:04.816Z,9.53
2019-05-15T20:38:32.175Z,7.47
2019-05-15T20:40:59.917Z,8.07
2019-05-15T20:43:27.418Z,10.80
2019-05-15T20:45:55.135Z,8.47
2019-05-15T20:48:22.523Z,9.60
2019-05-15T20:50:50.003Z,10.20
2019-05-15T20:53:18.146Z,11.77
2019-05-15T20:55:48.309Z,10.83
2019-05-15T20:58:15.375Z,11.87
2019-05-15T21:00:43.208Z,10.60
2019-05-15T21:03:10.607Z,10.47
2019-05-15T21:05:38.295Z,9.70
2019-05-15T21:08:05.937Z,7.80
2019-05-15T21:10:33.361Z,9.30
2019-05-15T21:13:00.771Z,8.50
2019-05-15T21:15:28.185Z,8.37
2019-05-15T21:17:59.569Z,8.33
2019-05-15T21:20:24.947Z,10.03
2019-05-15T21:22:52.352Z,9.40
2019-05-15T21:25:20.071Z,11.67
2019-05-15T21:27:48.753Z,11.37
2019-05-15T21:30:18.926Z,10.47
2019-05-15T21:32:45.927Z,10.93
2019-05-15T21:35:13.771Z,10.80
2019-05-15T21:37:41.079Z,10.20
2019-05-15T21:40:08.896Z,9.87
2019-05-15T21:42:38.906Z,11.97
2019-05-15T21:45:13.691Z,11.13
2019-05-15T21:47:35.928Z,10.27
2019-05-15T21:50:03.900Z,10.50
2019-05-15T21:52:31.281Z,11.97
2019-05-15T21:55:01.612Z,11.30
2019-05-15T21:57:34.089Z,10.80
2019-05-15T21:59:57.793Z,9.53
2019-05-15T22:02:25.767Z,9.33
2019-05-15T22:04:56.177Z,9.07
2019-05-15T22:07:22.698Z,11.93
2019-05-15T22:09:50.101Z,11.70
2019-05-15T22:12:18.399Z,12.97
2019-05-15T22:14:46.009Z,14.00
2019-05-15T22:17:13.393Z,13.10
2019-05-15T22:19:40.831Z,12.90
2019-05-15T22:22:08.846Z,12.17
2019-05-15T22:24:37.855Z,14.00
2019-05-15T22:27:05.565Z,13.33
2019-05-15T22:29:32.962Z,13.50
2019-05-15T22:32:00.355Z,11.00
2019-05-15T22:34:28.556Z,11.80
2019-05-15T22:36:57.767Z,11.43
2019-05-15T22:39:25.219Z,11.23
2019-05-15T22:41:52.855Z,13.33
2019-05-15T22:44:20.258Z,12.83
2019-05-15T22:46:48.773Z,12.80
2019-05-15T22:49:18.250Z,13.73
2019-05-15T22:51:45.508Z,12.53
2019-05-15T22:54:12.903Z,13.47
2019-05-15T22:56:40.428Z,14.27
2019-05-15T22:59:08.539Z,12.80
2019-05-15T23:01:38.814Z,11.60
2019-05-15T23:04:08.795Z,11.93
2019-05-15T23:06:35.796Z,15.50
2019-05-15T23:09:05.311Z,15.77
2019-05-15T23:11:32.752Z,15.50
2019-05-15T23:14:00.149Z,15.37
2019-05-15T23:16:28.386Z,12.90
2019-05-15T23:18:56.088Z,13.00
2019-05-15T23:21:23.492Z,12.33
2019-05-15T23:23:50.884Z,13.37
2019-05-15T23:26:18.304Z,13.60
2019-05-15T23:28:47.928Z,14.00
2019-05-15T23:31:14.878Z,15.27
2019-05-15T23:33:42.298Z,14.83
2019-05-15T23:36:09.690Z,12.20
2019-05-15T23:38:38.473Z,12.60
2019-05-15T23:41:08.108Z,12.93
2019-05-15T23:43:35.233Z,11.90
2019-05-15T23:46:02.626Z,10.87
2019-05-15T23:48:30.647Z,10.23
2019-05-15T23:50:59.206Z,13.77
2019-05-15T23:53:28.943Z,10.60
2019-05-15T23:55:58.768Z,10.07
2019-05-15T23:58:26.073Z,9.30
